Time;durP1;ratioP1;P1;durP2;ratioP2;P2;SDS_P1;SDS_P2;PMS_P1;PMS_P2;Temp;Humidity;BMP_temperature;BMP_pressure;BME280_temperature;BME280_humidity;BME280_pressure;Samples;Min_cycle;Max_cycle;Signal;HPM_P1;HPM_P2
2024/03/01 00:00:16;;;;;;;3.38;2.85;;;10.00;99.90;;;;;;5038105;28;20029;-34
2024/03/01 00:02:42;;;;;;;3.15;2.70;;;10.00;99.90;;;;;;5038924;28;20036;-33
2024/03/01 00:05:08;;;;;;;3.22;2.78;;;10.00;99.90;;;;;;5038844;28;20418;-37
2024/03/01 00:07:34;;;;;;;3.42;2.78;;;10.00;99.90;;;;;;5038621;28;20032;-33
2024/03/01 00:09:59;;;;;;;3.38;2.92;;;10.00;99.90;;;;;;5038829;28;20202;-35
2024/03/01 00:12:25;;;;;;;3.28;2.88;;;10.00;99.90;;;;;;5038175;28;20049;-37
2024/03/01 00:14:50;;;;;;;2.75;2.50;;;9.90;99.90;;;;;;5037694;28;20464;-37
2024/03/01 00:17:16;;;;;;;3.15;2.58;;;9.90;99.90;;;;;;5038451;28;20067;-34
2024/03/01 00:19:41;;;;;;;2.88;2.55;;;10.00;99.90;;;;;;5039304;28;20025;-33
2024/03/01 00:22:07;;;;;;;3.53;2.55;;;10.00;99.90;;;;;;5041851;28;20025;-38
2024/03/01 00:24:33;;;;;;;3.05;2.55;;;10.00;99.90;;;;;;5041700;28;20028;-33
2024/03/01 00:26:58;;;;;;;3.25;2.58;;;10.00;99.90;;;;;;5042813;28;20055;-33
2024/03/01 00:29:26;;;;;;;3.33;2.72;;;10.00;99.90;;;;;;5040480;28;20035;-37
2024/03/01 00:31:52;;;;;;;3.05;2.75;;;10.00;99.90;;;;;;5042188;28;20029;-37
2024/03/01 00:34:17;;;;;;;3.85;3.22;;;10.00;99.90;;;;;;5041862;28;20044;-37
2024/03/01 00:36:43;;;;;;;3.78;3.15;;;10.00;99.90;;;;;;5040622;28;20029;-30
2024/03/01 00:39:08;;;;;;;4.35;3.35;;;10.00;99.90;;;;;;5042117;28;20436;-34
2024/03/01 00:41:34;;;;;;;4.03;3.38;;;10.00;99.90;;;;;;5040728;28;20039;-36
2024/03/01 00:44:01;;;;;;;3.70;3.30;;;10.00;99.90;;;;;;5041793;28;20033;-34
2024/03/01 00:46:27;;;;;;;5.22;3.85;;;10.00;99.90;;;;;;5041797;28;20033;-36
2024/03/01 00:48:55;;;;;;;4.40;3.75;;;10.00;99.90;;;;;;5040882;28;20098;-38
2024/03/01 00:51:21;;;;;;;4.57;3.63;;;10.00;99.90;;;;;;5041718;28;20029;-37
2024/03/01 00:53:46;;;;;;;4.22;3.70;;;10.00;99.90;;;;;;5042409;28;20051;-36
2024/03/01 00:56:12;;;;;;;4.05;3.30;;;10.00;99.90;;;;;;5040164;28;20115;-36
2024/03/01 00:58:40;;;;;;;4.20;3.30;;;10.00;99.90;;;;;;5042488;28;20090;-33
2024/03/01 01:01:06;;;;;;;4.03;3.33;;;10.00;99.90;;;;;;5042423;28;20067;-36
2024/03/01 01:03:31;;;;;;;3.83;3.40;;;10.00;99.90;;;;;;5041320;28;20025;-37
2024/03/01 01:05:57;;;;;;;4.72;3.55;;;10.10;99.90;;;;;;5042645;28;20480;-35
2024/03/01 01:08:24;;;;;;;4.88;3.40;;;10.10;99.90;;;;;;5040282;28;20504;-35
2024/03/01 01:10:50;;;;;;;4.13;3.40;;;10.10;99.90;;;;;;5040814;28;20818;-35
2024/03/01 01:13:21;;;;;;;4.47;3.50;;;10.10;99.90;;;;;;5041028;28;20037;-36
2024/03/01 01:15:47;;;;;;;5.07;3.90;;;10.10;99.90;;;;;;5040885;28;20029;-37
2024/03/01 01:18:14;;;;;;;5.40;4.43;;;10.10;99.90;;;;;;5040838;28;20498;-34
2024/03/01 01:20:39;;;;;;;4.75;3.28;;;10.10;99.90;;;;;;5041415;28;20107;-37
2024/03/01 01:23:05;;;;;;;3.80;3.30;;;10.10;99.90;;;;;;5040548;28;20024;-33
2024/03/01 01:25:30;;;;;;;6.10;3.80;;;10.10;99.90;;;;;;5039968;28;20810;-32
2024/03/01 01:27:56;;;;;;;4.47;3.80;;;10.10;99.90;;;;;;5040195;28;20052;-37
2024/03/01 01:30:22;;;;;;;5.90;4.25;;;10.10;99.90;;;;;;5041036;28;20052;-36
2024/03/01 01:32:47;;;;;;;5.05;3.85;;;10.10;99.90;;;;;;5039615;28;20120;-34
2024/03/01 01:35:13;;;;;;;5.72;4.13;;;10.10;99.90;;;;;;5040656;28;20029;-34
2024/03/01 01:37:38;;;;;;;5.32;4.28;;;10.10;99.90;;;;;;5041419;28;20067;-34
2024/03/01 01:40:05;;;;;;;4.45;3.72;;;10.10;99.90;;;;;;5041081;28;20031;-36
2024/03/01 01:42:31;;;;;;;5.43;3.80;;;10.10;99.90;;;;;;5040312;28;20785;-35
2024/03/01 01:44:57;;;;;;;4.78;3.67;;;10.10;99.90;;;;;;5041152;28;20249;-35
2024/03/01 01:47:23;;;;;;;4.13;3.63;;;10.20;99.90;;;;;;5040838;28;20555;-37
2024/03/01 01:49:49;;;;;;;4.75;4.18;;;10.20;99.90;;;;;;5041484;28;20058;-36
2024/03/01 01:52:15;;;;;;;5.30;4.40;;;10.20;99.90;;;;;;5040301;28;20078;-35
2024/03/01 01:54:48;;;;;;;4.15;3.58;;;10.20;99.90;;;;;;5039757;28;20080;-35
2024/03/01 01:57:16;;;;;;;5.07;3.58;;;10.20;99.90;;;;;;5040468;28;20017;-33
2024/03/01 01:59:44;;;;;;;4.45;3.75;;;10.20;99.90;;;;;;5039692;28;20029;-36
2024/03/01 02:02:09;;;;;;;4.75;4.03;;;10.20;99.90;;;;;;5039737;28;20037;-36
2024/03/01 02:04:39;;;;;;;5.22;3.90;;;10.20;99.90;;;;;;5041470;28;20036;-36
2024/03/01 02:07:05;;;;;;;4.30;3.50;;;10.20;99.90;;;;;;5039741;28;20021;-35
2024/03/01 02:09:31;;;;;;;4.25;3.60;;;10.20;99.90;;;;;;5039861;28;20379;-33
2024/03/01 02:11:57;;;;;;;3.88;3.47;;;10.20;99.90;;;;;;5041067;28;20057;-32
2024/03/01 02:14:23;;;;;;;4.20;3.67;;;10.20;99.90;;;;;;5040121;28;20543;-34
2024/03/01 02:16:48;;;;;;;4.03;3.28;;;10.20;99.90;;;;;;5039856;28;20074;-34
2024/03/01 02:19:15;;;;;;;3.95;3.35;;;10.20;99.90;;;;;;5039673;28;20028;-36
2024/03/01 02:21:52;;;;;;;4.10;3.58;;;10.20;99.90;;;;;;5039443;28;20500;-35
2024/03/01 02:24:18;;;;;;;4.95;3.90;;;10.20;99.90;;;;;;5039977;28;20104;-37
2024/03/01 02:26:44;;;;;;;4.20;3.30;;;10.20;99.90;;;;;;5038750;28;20043;-32
2024/03/01 02:29:09;;;;;;;5.43;3.80;;;10.10;99.90;;;;;;5039868;28;20021;-31
2024/03/01 02:31:35;;;;;;;4.53;3.65;;;10.20;99.90;;;;;;5040644;28;20025;-36
2024/03/01 02:34:00;;;;;;;4.05;3.45;;;10.20;99.90;;;;;;5039937;28;20045;-33
2024/03/01 02:36:26;;;;;;;4.63;4.00;;;10.10;99.90;;;;;;5039633;28;20037;-36
2024/03/01 02:38:52;;;;;;;4.30;3.40;;;10.10;99.90;;;;;;5040797;28;20033;-33
2024/03/01 02:41:17;;;;;;;3.35;3.03;;;10.10;99.90;;;;;;5039295;28;20023;-34
2024/03/01 02:43:43;;;;;;;4.15;3.40;;;10.10;99.90;;;;;;5040381;28;20029;-36
2024/03/01 02:46:08;;;;;;;4.45;3.75;;;10.10;99.90;;;;;;5038675;28;20025;-34
2024/03/01 02:48:34;;;;;;;4.18;3.65;;;10.10;99.90;;;;;;5039037;28;20029;-33
2024/03/01 02:50:59;;;;;;;5.20;4.00;;;10.10;99.90;;;;;;5040132;28;20028;-31
2024/03/01 02:53:25;;;;;;;5.38;4.10;;;10.10;99.90;;;;;;5037707;28;20499;-33
2024/03/01 02:55:50;;;;;;;5.28;4.18;;;10.00;99.90;;;;;;5039387;28;20117;-37
2024/03/01 02:58:16;;;;;;;5.05;3.65;;;10.00;99.90;;;;;;5039929;28;20021;-36
2024/03/01 03:00:42;;;;;;;4.38;3.33;;;10.00;99.90;;;;;;5039148;28;20559;-34
2024/03/01 03:03:07;;;;;;;4.38;3.60;;;9.90;99.90;;;;;;5039986;28;20025;-33
2024/03/01 03:05:33;;;;;;;4.60;3.63;;;9.90;99.90;;;;;;5040039;28;20029;-35
2024/03/01 03:07:58;;;;;;;4.20;3.42;;;9.80;99.90;;;;;;5040574;28;20032;-35
2024/03/01 03:10:24;;;;;;;3.42;3.08;;;9.80;99.90;;;;;;5038543;28;20082;-34
2024/03/01 03:12:49;;;;;;;4.03;3.40;;;9.80;99.90;;;;;;5038404;28;20416;-33
2024/03/01 03:15:16;;;;;;;4.75;3.30;;;9.70;99.90;;;;;;5039300;28;20024;-35
2024/03/01 03:17:41;;;;;;;4.05;3.55;;;9.70;99.90;;;;;;5037703;28;20013;-34
2024/03/01 03:20:10;;;;;;;4.18;3.42;;;9.70;99.90;;;;;;5038807;28;20071;-37
2024/03/01 03:22:54;;;;;;;3.95;3.55;;;9.60;99.90;;;;;;5038709;28;20127;-34
2024/03/01 03:25:19;;;;;;;4.63;3.85;;;9.60;99.90;;;;;;5038530;28;20099;-33
2024/03/01 03:27:45;;;;;;;5.10;4.30;;;9.60;99.90;;;;;;5039324;28;20112;-32
2024/03/01 03:30:11;;;;;;;5.90;4.30;;;9.60;99.90;;;;;;5039128;28;20045;-34
2024/03/01 03:32:36;;;;;;;5.03;3.72;;;9.50;99.90;;;;;;5038525;28;20089;-37
2024/03/01 03:35:04;;;;;;;4.47;3.45;;;9.50;99.90;;;;;;5038239;28;20044;-34
2024/03/01 03:37:29;;;;;;;3.50;3.20;;;9.50;99.90;;;;;;5039281;28;20420;-35
2024/03/01 03:39:55;;;;;;;4.07;3.20;;;9.50;99.90;;;;;;5038634;28;20535;-33
2024/03/01 03:42:20;;;;;;;4.63;3.60;;;9.60;99.90;;;;;;5038378;28;20458;-33
2024/03/01 03:44:46;;;;;;;4.38;3.22;;;9.50;99.90;;;;;;5039170;28;20021;-34
2024/03/01 03:47:11;;;;;;;3.97;3.58;;;9.60;99.90;;;;;;5038960;28;20029;-36
2024/03/01 03:49:37;;;;;;;4.28;3.88;;;9.60;99.90;;;;;;5039203;28;20029;-36
2024/03/01 03:52:06;;;;;;;4.68;4.22;;;9.60;99.90;;;;;;5038661;28;20115;-33
2024/03/01 03:54:36;;;;;;;6.43;4.25;;;9.60;99.90;;;;;;5037841;28;20910;-37
2024/03/01 03:57:03;;;;;;;4.60;3.85;;;9.60;99.90;;;;;;5043041;28;20036;-33
2024/03/01 03:59:28;;;;;;;4.78;3.72;;;9.60;99.90;;;;;;5041439;28;20060;-35
2024/03/01 04:01:54;;;;;;;4.85;3.67;;;9.60;99.90;;;;;;5042768;28;20159;-33
2024/03/01 04:04:19;;;;;;;3.95;3.40;;;9.60;99.90;;;;;;5042665;28;20048;-34
2024/03/01 04:06:45;;;;;;;4.93;3.60;;;9.60;99.90;;;;;;5042332;28;20029;-35
2024/03/01 04:09:10;;;;;;;4.35;3.80;;;9.60;99.90;;;;;;5041670;28;20064;-37
2024/03/01 04:11:37;;;;;;;4.45;3.63;;;9.70;99.90;;;;;;5041966;28;20132;-34
2024/03/01 04:14:02;;;;;;;4.60;3.30;;;9.70;99.90;;;;;;5041709;28;20056;-37
2024/03/01 04:16:29;;;;;;;3.92;3.13;;;9.70;99.90;;;;;;5042221;28;20060;-34
2024/03/01 04:18:57;;;;;;;4.95;3.83;;;9.70;99.90;;;;;;5041498;28;20858;-34
2024/03/01 04:21:23;;;;;;;3.88;3.47;;;9.70;99.90;;;;;;5041681;28;20120;-34
2024/03/01 04:23:48;;;;;;;3.97;3.15;;;9.70;99.90;;;;;;5043496;28;20035;-36
2024/03/01 04:26:14;;;;;;;4.72;2.70;;;9.80;99.90;;;;;;5042988;28;20029;-32
2024/03/01 04:28:40;;;;;;;3.08;2.78;;;9.80;99.90;;;;;;5040781;28;20145;-34
2024/03/01 04:31:05;;;;;;;2.45;2.25;;;9.80;99.90;;;;;;5042063;28;20045;-34
2024/03/01 04:33:40;;;;;;;2.15;1.90;;;9.90;99.90;;;;;;5042291;28;20041;-31
2024/03/01 04:36:08;;;;;;;2.17;1.98;;;9.90;99.90;;;;;;5041717;28;20024;-36
2024/03/01 04:38:35;;;;;;;2.50;2.30;;;9.80;99.90;;;;;;5042140;28;20089;-29
2024/03/01 04:41:00;;;;;;;2.58;2.38;;;9.80;99.90;;;;;;5041861;28;20040;-32
2024/03/01 04:43:26;;;;;;;2.70;2.40;;;9.80;99.90;;;;;;5041321;28;20483;-35
2024/03/01 04:45:53;;;;;;;2.47;2.28;;;9.70;99.90;;;;;;5041403;28;20029;-35
2024/03/01 04:48:19;;;;;;;2.03;1.92;;;9.60;99.90;;;;;;5041826;28;20090;-35
2024/03/01 04:50:45;;;;;;;1.70;1.60;;;9.50;99.90;;;;;;5042270;28;20025;-35
2024/03/01 04:53:10;;;;;;;1.98;1.88;;;9.50;99.90;;;;;;5041173;28;20091;-33
2024/03/01 04:55:36;;;;;;;2.30;2.10;;;9.50;99.90;;;;;;5041078;28;20041;-34
2024/03/01 04:58:02;;;;;;;1.90;1.80;;;9.40;99.90;;;;;;5041066;28;20094;-33
2024/03/01 05:00:27;;;;;;;2.05;1.95;;;9.40;99.90;;;;;;5041059;28;20107;-33
2024/03/01 05:02:54;;;;;;;1.92;1.83;;;9.30;99.90;;;;;;5041612;28;20803;-35
2024/03/01 05:05:22;;;;;;;1.70;1.60;;;9.30;99.90;;;;;;5040025;28;20606;-36
2024/03/01 05:07:48;;;;;;;1.70;1.60;;;9.30;99.90;;;;;;5041614;28;20387;-35
2024/03/01 05:10:21;;;;;;;1.60;1.50;;;9.30;99.90;;;;;;5039872;28;20029;-37
2024/03/01 05:12:48;;;;;;;1.50;1.40;;;9.30;99.90;;;;;;5041517;28;20053;-38
2024/03/01 05:15:15;;;;;;;1.70;1.60;;;9.30;99.90;;;;;;5041819;28;20541;-37
2024/03/01 05:17:45;;;;;;;2.45;1.58;;;9.20;99.90;;;;;;5040762;28;20017;-34
2024/03/01 05:20:11;;;;;;;1.50;1.40;;;9.20;99.90;;;;;;5041832;28;20063;-35
2024/03/01 05:22:41;;;;;;;1.40;1.30;;;9.20;99.90;;;;;;5041237;28;20032;-34
2024/03/01 05:25:17;;;;;;;1.45;1.10;;;9.10;99.90;;;;;;5040271;28;20640;-33
2024/03/01 05:27:44;;;;;;;1.50;1.40;;;9.10;99.90;;;;;;5042183;28;20021;-31
2024/03/01 05:30:12;;;;;;;1.48;1.20;;;9.00;99.90;;;;;;5041280;28;20031;-33
2024/03/01 05:32:45;;;;;;;1.25;1.15;;;8.90;99.90;;;;;;5041625;28;20079;-33
2024/03/01 05:35:12;;;;;;;;;;;8.70;99.90;;;;;;5041548;28;20135;-36
2024/03/01 05:37:38;;;;;;;0.80;0.80;;;8.60;99.90;;;;;;5039956;28;19916;-37
2024/03/01 05:40:10;;;;;;;1.05;0.90;;;8.50;99.90;;;;;;5041613;28;20021;-35
2024/03/01 05:42:39;;;;;;;1.08;0.77;;;8.50;99.90;;;;;;5040877;28;20143;-37
2024/03/01 05:45:07;;;;;;;1.52;0.95;;;8.50;99.90;;;;;;5040656;28;20029;-34
2024/03/01 05:47:34;;;;;;;1.35;0.80;;;8.50;99.90;;;;;;5040417;28;20028;-33
2024/03/01 05:50:00;;;;;;;1.58;0.90;;;8.40;99.90;;;;;;5041010;28;20104;-32
2024/03/01 05:52:28;;;;;;;0.85;0.85;;;8.50;99.90;;;;;;5040444;28;20023;-37
2024/03/01 05:54:54;;;;;;;1.45;1.20;;;8.40;99.90;;;;;;5040620;28;20037;-36
2024/03/01 05:57:19;;;;;;;1.63;1.10;;;8.40;99.90;;;;;;5039729;28;20048;-31
2024/03/01 05:59:45;;;;;;;1.25;1.15;;;8.40;99.90;;;;;;5039387;28;20356;-36
2024/03/01 06:02:11;;;;;;;2.55;1.80;;;8.40;99.90;;;;;;5038112;28;20448;-35
2024/03/01 06:04:36;;;;;;;1.70;1.30;;;8.40;99.90;;;;;;5039444;28;20031;-36
2024/03/01 06:07:02;;;;;;;2.90;1.60;;;8.40;99.90;;;;;;5037879;28;20060;-37
2024/03/01 06:09:27;;;;;;;1.60;1.35;;;8.40;99.90;;;;;;5039413;28;20035;-34
2024/03/01 06:11:53;;;;;;;2.15;1.48;;;8.40;99.90;;;;;;5039507;28;20025;-37
2024/03/01 06:14:19;;;;;;;1.38;1.25;;;8.40;99.90;;;;;;5039090;28;20037;-37
2024/03/01 06:16:47;;;;;;;1.40;1.30;;;8.40;99.90;;;;;;5040031;28;20017;-34
2024/03/01 06:19:13;;;;;;;1.50;1.20;;;8.40;99.90;;;;;;5040294;28;20567;-35
2024/03/01 06:21:39;;;;;;;1.90;1.27;;;8.40;99.90;;;;;;5039750;28;20047;-32
2024/03/01 06:24:04;;;;;;;1.67;1.50;;;8.40;99.90;;;;;;5040596;28;20033;-32
2024/03/01 06:26:30;;;;;;;1.83;1.00;;;8.40;99.90;;;;;;5039352;28;20383;-32
2024/03/01 06:28:56;;;;;;;1.70;1.23;;;8.40;99.90;;;;;;5040662;28;20104;-31
2024/03/01 06:31:21;;;;;;;1.65;1.27;;;8.40;99.90;;;;;;5037186;28;20111;-34
2024/03/01 06:33:47;;;;;;;1.90;1.70;;;8.50;99.90;;;;;;5040095;28;20040;-34
2024/03/01 06:36:13;;;;;;;2.10;1.80;;;8.50;99.90;;;;;;5038728;28;20028;-34
2024/03/01 06:38:38;;;;;;;1.90;1.70;;;8.50;99.90;;;;;;5039828;28;20130;-33
2024/03/01 06:41:05;;;;;;;2.13;1.92;;;8.50;99.90;;;;;;5038721;28;20033;-38
2024/03/01 06:43:31;;;;;;;2.20;1.98;;;8.40;99.90;;;;;;5039617;28;20040;-37
2024/03/01 06:45:56;;;;;;;2.13;1.98;;;8.40;99.90;;;;;;5039316;28;20036;-35
2024/03/01 06:48:22;;;;;;;1.75;1.65;;;8.40;99.90;;;;;;5035934;28;20034;-36
2024/03/01 06:50:48;;;;;;;2.42;2.00;;;8.50;99.90;;;;;;5039778;28;20463;-32
2024/03/01 06:53:13;;;;;;;2.33;1.90;;;8.40;99.90;;;;;;5039780;28;20832;-37
2024/03/01 06:55:39;;;;;;;2.50;2.00;;;8.50;99.90;;;;;;5038962;28;20074;-35
2024/03/01 06:58:05;;;;;;;1.92;1.77;;;8.50;99.90;;;;;;5039140;28;20082;-36
2024/03/01 07:00:32;;;;;;;1.88;1.58;;;8.50;99.90;;;;;;5040193;28;20035;-37
2024/03/01 07:02:57;;;;;;;1.95;1.55;;;8.50;99.90;;;;;;5036771;28;20525;-37
2024/03/01 07:05:23;;;;;;;1.92;1.50;;;8.50;99.90;;;;;;5038208;28;20021;-35
2024/03/01 07:07:51;;;;;;;1.55;1.45;;;8.50;99.90;;;;;;5039644;28;20029;-34
2024/03/01 07:10:17;;;;;;;1.88;1.55;;;8.50;99.90;;;;;;5038579;28;20025;-36
2024/03/01 07:12:43;;;;;;;2.33;1.50;;;8.50;99.90;;;;;;5038525;28;20045;-34
2024/03/01 07:15:08;;;;;;;2.28;1.40;;;8.50;99.90;;;;;;5038824;28;20059;-37
2024/03/01 07:17:34;;;;;;;2.20;1.67;;;8.50;99.90;;;;;;5037835;28;20202;-36
2024/03/01 07:20:00;;;;;;;1.77;1.65;;;8.50;99.90;;;;;;5039113;28;20071;-29
2024/03/01 07:22:26;;;;;;;2.55;1.83;;;8.50;99.90;;;;;;5036931;28;20059;-36
2024/03/01 07:24:51;;;;;;;3.15;1.80;;;8.50;99.90;;;;;;5036017;28;20438;-34
2024/03/01 07:27:17;;;;;;;2.60;1.77;;;8.50;99.90;;;;;;5035050;28;20032;-35
2024/03/01 07:29:43;;;;;;;3.00;2.00;;;8.50;99.90;;;;;;5035102;28;20052;-38
2024/03/01 07:32:08;;;;;;;1.95;1.80;;;8.40;99.90;;;;;;5036886;28;20021;-38
2024/03/01 07:34:34;;;;;;;2.05;1.70;;;8.40;99.90;;;;;;5036495;28;20099;-36
2024/03/01 07:37:00;;;;;;;3.45;2.10;;;8.40;99.90;;;;;;5034815;28;20048;-33
2024/03/01 07:39:27;;;;;;;2.88;2.00;;;8.40;99.90;;;;;;5035737;28;20021;-36
2024/03/01 07:41:52;;;;;;;2.47;1.70;;;8.40;99.90;;;;;;5037574;28;20040;-35
2024/03/01 07:44:18;;;;;;;2.10;1.90;;;8.40;99.90;;;;;;5035616;28;20693;-38
2024/03/01 07:46:43;;;;;;;1.80;1.70;;;8.40;99.90;;;;;;5039497;28;20110;-37
2024/03/01 07:49:09;;;;;;;3.15;2.03;;;8.40;99.90;;;;;;5038833;28;20062;-34
2024/03/01 07:51:35;;;;;;;2.10;1.90;;;8.40;99.90;;;;;;5037969;28;20036;-38
2024/03/01 07:54:00;;;;;;;2.65;2.17;;;8.50;99.90;;;;;;5038759;28;20527;-30
2024/03/01 07:56:27;;;;;;;2.65;1.90;;;8.40;99.90;;;;;;5038883;28;20353;-35
2024/03/01 07:59:11;;;;;;;3.05;1.95;;;8.50;99.90;;;;;;5036559;28;20489;-32
2024/03/01 08:01:37;;;;;;;2.83;2.10;;;8.50;99.90;;;;;;5038539;28;20036;-33
2024/03/01 08:04:03;;;;;;;2.15;1.95;;;8.40;99.90;;;;;;5039041;28;20095;-34
2024/03/01 08:06:29;;;;;;;3.08;2.40;;;8.40;99.90;;;;;;5037556;28;20424;-35
2024/03/01 08:08:55;;;;;;;2.67;2.28;;;8.40;99.90;;;;;;5039458;28;20035;-36
2024/03/01 08:11:41;;;;;;;3.20;2.58;;;8.40;99.90;;;;;;5038550;28;20029;-32
2024/03/01 08:14:26;;;;;;;2.50;2.30;;;8.30;99.90;;;;;;5036136;28;20083;-33
2024/03/01 08:16:53;;;;;;;4.18;3.08;;;8.30;99.90;;;;;;5036661;28;20056;-37
2024/03/01 08:19:21;;;;;;;4.95;3.63;;;8.30;99.90;;;;;;5033971;28;20099;-35
2024/03/01 08:21:47;;;;;;;4.03;3.63;;;8.30;99.90;;;;;;5034256;28;20031;-30
2024/03/01 08:24:24;;;;;;;3.35;3.05;;;8.30;99.90;;;;;;5037621;28;20679;-35
2024/03/01 08:26:50;;;;;;;4.10;3.65;;;8.40;99.90;;;;;;5038148;28;20119;-37
2024/03/01 08:29:20;;;;;;;5.25;3.35;;;8.40;99.90;;;;;;5037170;28;20029;-37
2024/03/01 08:31:46;;;;;;;4.82;3.60;;;8.40;99.90;;;;;;5034967;28;20037;-35
2024/03/01 08:34:21;;;;;;;4.25;3.85;;;8.50;99.90;;;;;;5035269;28;20044;-31
2024/03/01 08:36:49;;;;;;;6.93;4.88;;;8.60;99.90;;;;;;5037045;28;20024;-37
2024/03/01 08:39:24;;;;;;;6.18;5.30;;;8.60;99.90;;;;;;5018358;28;20108;-36
2024/03/01 08:41:52;;;;;;;9.23;6.32;;;8.70;99.90;;;;;;5035153;28;20220;-32
2024/03/01 08:44:23;;;;;;;6.28;5.63;;;8.70;99.90;;;;;;5042913;28;20116;-37
2024/03/01 08:46:49;;;;;;;7.60;6.75;;;8.70;99.90;;;;;;5042513;28;20070;-37
2024/03/01 08:49:49;;;;;;;8.70;7.65;;;8.80;99.90;;;;;;5041323;28;20944;-37
2024/03/01 08:52:24;;;;;;;10.60;7.93;;;8.80;99.90;;;;;;5042188;28;20636;-34
2024/03/01 08:54:55;;;;;;;8.00;7.18;;;8.80;99.90;;;;;;5037864;28;20048;-36
2024/03/01 08:57:28;;;;;;;7.18;6.28;;;8.80;99.90;;;;;;5040771;28;20032;-35
2024/03/01 08:59:54;;;;;;;7.70;6.03;;;8.80;99.90;;;;;;5041746;28;20024;-33
2024/03/01 09:02:43;;;;;;;7.18;6.25;;;8.80;99.90;;;;;;5038710;28;20017;-34
2024/03/01 09:05:10;;;;;;;6.35;5.75;;;8.80;99.90;;;;;;5021874;28;20029;-35
2024/03/01 09:07:35;;;;;;;6.22;5.63;;;8.90;99.90;;;;;;5036366;28;20031;-36
2024/03/01 09:10:03;;;;;;;6.78;5.55;;;9.00;99.90;;;;;;5037970;28;20029;-38
2024/03/01 09:12:30;;;;;;;8.32;5.95;;;9.10;99.90;;;;;;5040386;28;20045;-36
2024/03/01 09:15:01;;;;;;;6.13;5.40;;;9.10;99.90;;;;;;5040955;28;20044;-35
2024/03/01 09:17:33;;;;;;;5.75;5.13;;;9.20;99.90;;;;;;5039770;28;20882;-37
2024/03/01 09:19:58;;;;;;;5.57;5.03;;;9.20;99.90;;;;;;5041936;28;20765;-34
2024/03/01 09:22:25;;;;;;;5.80;5.20;;;9.10;99.90;;;;;;5040062;28;20029;-36
2024/03/01 09:24:50;;;;;;;5.63;5.13;;;9.10;99.90;;;;;;5040591;28;20152;-33
2024/03/01 09:27:16;;;;;;;5.95;5.35;;;9.00;99.90;;;;;;5038874;28;20117;-35
2024/03/01 09:29:46;;;;;;;6.40;5.72;;;9.00;99.90;;;;;;5037699;28;20798;-35
2024/03/01 09:32:14;;;;;;;7.13;6.43;;;9.10;99.90;;;;;;5024413;28;20029;-36
2024/03/01 09:34:41;;;;;;;8.82;6.38;;;9.10;99.90;;;;;;5039211;28;20904;-33
2024/03/01 09:37:18;;;;;;;7.28;6.28;;;9.10;99.90;;;;;;5038272;28;20157;-37
2024/03/01 09:39:44;;;;;;;6.43;5.18;;;9.20;99.90;;;;;;5038850;28;20036;-36
2024/03/01 09:42:40;;;;;;;5.25;4.78;;;9.20;99.90;;;;;;5039220;28;20029;-33
2024/03/01 09:45:13;;;;;;;9.60;5.07;;;9.20;99.90;;;;;;5039237;28;20083;-33
2024/03/01 09:47:51;;;;;;;5.53;4.90;;;9.30;99.90;;;;;;5037452;28;20575;-32
2024/03/01 09:50:48;;;;;;;4.88;4.00;;;9.30;99.90;;;;;;5040627;28;20060;-37
2024/03/01 09:53:38;;;;;;;4.55;4.05;;;9.50;99.90;;;;;;5039990;28;20491;-37
2024/03/01 09:57:06;;;;;;;4.97;3.97;;;9.60;99.90;;;;;;5040928;28;20925;-35
2024/03/01 10:00:01;;;;;;;5.40;4.00;;;9.70;99.90;;;;;;4960175;28;20027;-33
2024/03/01 10:02:36;;;;;;;5.53;3.60;;;9.60;99.90;;;;;;5020524;28;20033;-33
2024/03/01 10:05:10;;;;;;;4.82;3.13;;;9.70;99.90;;;;;;5038049;28;20059;-34
2024/03/01 10:07:49;;;;;;;3.22;2.85;;;9.70;99.90;;;;;;5040142;28;20547;-36
2024/03/01 10:10:27;;;;;;;4.25;2.92;;;9.80;99.90;;;;;;5040679;28;20024;-31
2024/03/01 10:13:06;;;;;;;3.88;2.75;;;9.80;99.90;;;;;;5040258;28;20115;-37
2024/03/01 10:15:41;;;;;;;3.33;2.60;;;9.80;99.90;;;;;;5039031;28;20040;-36
2024/03/01 10:18:12;;;;;;;4.47;2.83;;;9.80;99.90;;;;;;5039148;28;20052;-37
2024/03/01 10:20:41;;;;;;;6.00;3.38;;;9.80;99.90;;;;;;5039762;28;20037;-35
2024/03/01 10:23:34;;;;;;;5.18;2.90;;;9.80;99.90;;;;;;5040813;28;20041;-35
2024/03/01 10:26:22;;;;;;;4.07;3.05;;;9.80;99.90;;;;;;5039834;28;20036;-34
2024/03/01 10:29:13;;;;;;;5.72;3.53;;;9.80;99.90;;;;;;5040378;28;20075;-37
2024/03/01 10:31:59;;;;;;;5.15;3.30;;;9.90;99.90;;;;;;5039914;28;20036;-34
2024/03/01 10:34:30;;;;;;;5.53;3.10;;;9.90;99.90;;;;;;5038639;28;20033;-34
2024/03/01 10:37:04;;;;;;;4.78;3.08;;;9.90;99.90;;;;;;5028393;28;20384;-37
2024/03/01 10:39:37;;;;;;;3.42;2.60;;;9.90;99.90;;;;;;5038167;28;20090;-36
2024/03/01 10:42:27;;;;;;;2.97;2.13;;;10.00;99.90;;;;;;5040090;28;20114;-34
2024/03/01 10:45:11;;;;;;;4.50;2.42;;;10.00;99.90;;;;;;5051943;28;20079;-38
2024/03/01 10:47:38;;;;;;;4.63;2.47;;;10.10;99.90;;;;;;5037727;28;20040;-34
2024/03/01 10:50:09;;;;;;;4.88;2.17;;;10.20;99.90;;;;;;5039613;28;20025;-33
2024/03/01 10:52:50;;;;;;;4.53;2.00;;;10.30;99.90;;;;;;5039929;28;20117;-37
2024/03/01 10:55:24;;;;;;;4.20;2.85;;;10.40;99.90;;;;;;5038967;28;20044;-34
2024/03/01 10:58:01;;;;;;;4.85;2.42;;;10.40;99.90;;;;;;5039879;28;20617;-34
2024/03/01 11:00:28;;;;;;;4.22;2.75;;;10.40;99.90;;;;;;5039131;28;20021;-33
2024/03/01 11:02:59;;;;;;;2.75;2.35;;;10.40;99.90;;;;;;5039073;28;20028;-37
2024/03/01 11:05:36;;;;;;;5.03;2.95;;;10.40;99.90;;;;;;5038898;28;20028;-35
2024/03/01 11:08:30;;;;;;;4.47;2.75;;;10.40;99.90;;;;;;5035225;28;20037;-37
2024/03/01 11:11:06;;;;;;;2.80;2.15;;;10.40;99.90;;;;;;5038372;28;20154;-37
2024/03/01 11:13:34;;;;;;;2.65;1.77;;;10.40;99.90;;;;;;5037948;28;20060;-35
2024/03/01 11:16:04;;;;;;;3.35;2.20;;;10.40;99.90;;;;;;5037830;28;20020;-37
2024/03/01 11:18:35;;;;;;;3.40;2.10;;;10.50;99.90;;;;;;5038863;28;20029;-34
2024/03/01 11:21:23;;;;;;;3.67;2.53;;;10.50;99.90;;;;;;5025276;28;20032;-35
2024/03/01 11:23:57;;;;;;;3.35;2.30;;;10.50;99.90;;;;;;5036974;28;20037;-32
2024/03/01 11:26:30;;;;;;;4.97;2.35;;;10.60;99.90;;;;;;5025496;28;20029;-35
2024/03/01 11:29:05;;;;;;;4.65;2.00;;;10.70;99.90;;;;;;5037360;28;20060;-34
2024/03/01 11:31:34;;;;;;;5.70;2.50;;;10.70;99.90;;;;;;5038755;28;20025;-34
2024/03/01 11:34:13;;;;;;;7.57;2.88;;;10.60;99.90;;;;;;5039323;28;20078;-32
2024/03/01 11:37:13;;;;;;;2.63;2.13;;;10.60;99.90;;;;;;5038392;28;20033;-36
2024/03/01 11:40:05;;;;;;;3.22;2.17;;;10.70;99.90;;;;;;5039123;28;20033;-37
2024/03/01 11:42:43;;;;;;;3.05;1.83;;;10.70;99.90;;;;;;5036735;28;20029;-36
2024/03/01 11:45:46;;;;;;;3.00;2.10;;;10.70;99.90;;;;;;5037046;28;20029;-33
2024/03/01 11:48:30;;;;;;;5.00;1.98;;;10.80;99.90;;;;;;5037138;28;21013;-35
2024/03/01 11:51:11;;;;;;;4.47;1.80;;;10.80;99.90;;;;;;5021210;28;20043;-34
2024/03/01 11:54:00;;;;;;;2.08;1.80;;;10.90;99.90;;;;;;5038069;28;20041;-29
2024/03/01 11:56:52;;;;;;;2.72;1.60;;;11.00;99.90;;;;;;5039061;28;20037;-32
2024/03/01 11:59:35;;;;;;;2.70;1.73;;;11.00;99.90;;;;;;5034736;28;20033;-38
2024/03/01 12:02:35;;;;;;;2.65;1.50;;;11.10;99.90;;;;;;5039520;28;20025;-33
2024/03/01 12:05:32;;;;;;;1.90;1.08;;;11.10;99.90;;;;;;5028708;28;20025;-33
2024/03/01 12:08:36;;;;;;;3.00;1.42;;;11.10;99.90;;;;;;5038606;28;20921;-35
2024/03/01 12:11:13;;;;;;;1.25;1.00;;;11.10;99.90;;;;;;5038120;28;20033;-35
2024/03/01 12:13:49;;;;;;;2.78;1.35;;;11.10;99.90;;;;;;5038162;28;20064;-33
2024/03/01 12:16:35;;;;;;;1.48;1.10;;;11.10;99.90;;;;;;5039874;28;20136;-35
2024/03/01 12:19:09;;;;;;;2.88;1.38;;;11.10;99.90;;;;;;5042120;28;20025;-36
2024/03/01 12:21:44;;;;;;;1.40;1.30;;;11.20;99.90;;;;;;5041113;28;20139;-33
2024/03/01 12:24:17;;;;;;;2.60;1.30;;;11.10;99.90;;;;;;5041134;28;20094;-32
2024/03/01 12:27:24;;;;;;;2.70;1.30;;;11.20;99.90;;;;;;5040966;28;20033;-35
2024/03/01 12:30:09;;;;;;;1.67;1.17;;;11.20;99.90;;;;;;5033122;28;20151;-35
2024/03/01 12:33:20;;;;;;;1.77;1.42;;;11.20;99.90;;;;;;5040469;28;20616;-34
2024/03/01 12:36:15;;;;;;;3.03;1.60;;;11.20;99.90;;;;;;5042223;28;20082;-34
2024/03/01 12:38:46;;;;;;;1.88;1.25;;;11.20;99.90;;;;;;5041954;28;20028;-38
2024/03/01 12:41:38;;;;;;;1.20;1.10;;;11.20;99.90;;;;;;5038344;28;20059;-35
2024/03/01 12:44:40;;;;;;;1.73;1.05;;;11.20;99.90;;;;;;5041578;28;20045;-33
2024/03/01 12:47:14;;;;;;;1.33;0.90;;;11.30;99.90;;;;;;5041971;28;20044;-35
2024/03/01 12:49:52;;;;;;;2.13;1.00;;;11.50;99.90;;;;;;5041803;28;20961;-35
2024/03/01 12:52:47;;;;;;;1.10;1.00;;;11.50;99.90;;;;;;5042403;28;20055;-33
2024/03/01 12:55:28;;;;;;;2.20;0.73;;;11.60;99.90;;;;;;5040880;28;20049;-38
2024/03/01 12:58:10;;;;;;;1.05;0.95;;;11.60;99.90;;;;;;5022924;28;20029;-35
2024/03/01 13:01:05;;;;;;;1.38;0.70;;;11.60;99.90;;;;;;5036469;28;20128;-37
2024/03/01 13:03:31;;;;;;;2.65;0.80;;;11.60;99.90;;;;;;5021548;28;20044;-37
2024/03/01 13:05:57;;;;;;;0.68;0.60;;;11.70;99.90;;;;;;5039475;28;20024;-36
2024/03/01 13:08:30;;;;;;;1.50;0.65;;;11.70;99.90;;;;;;5040250;28;20361;-34
2024/03/01 13:10:57;;;;;;;;;;;11.80;99.90;;;;;;5041034;28;20031;-33